Time;durP1;ratioP1;P1;durP2;ratioP2;P2;SDS_P1;SDS_P2;PMS_P1;PMS_P2;Temp;Humidity;BMP_temperature;BMP_pressure;BME280_temperature;BME280_humidity;BME280_pressure;Samples;Min_cycle;Max_cycle;Signal;HPM_P1;HPM_P2
2021/11/10 00:01:43;;;;;;;20.80;9.35;;;9.00;99.90;;;;;;5038722;28;20388;-49
2021/11/10 00:04:10;;;;;;;15.90;9.35;;;9.10;99.90;;;;;;5044079;28;20071;-53
2021/11/10 00:06:37;;;;;;;21.67;10.40;;;9.10;99.90;;;;;;5047082;28;20407;-53
2021/11/10 00:09:05;;;;;;;24.05;10.32;;;9.00;99.90;;;;;;5047824;28;20047;-49
2021/11/10 00:11:31;;;;;;;23.05;10.45;;;9.10;99.90;;;;;;5046456;28;20507;-50
2021/11/10 00:13:57;;;;;;;17.88;9.45;;;9.10;99.90;;;;;;5047350;28;20107;-53
2021/11/10 00:16:23;;;;;;;21.52;9.32;;;9.10;99.90;;;;;;5044076;28;20048;-49
2021/11/10 00:18:51;;;;;;;20.38;9.98;;;9.10;99.90;;;;;;5045061;28;20037;-59
2021/11/10 00:21:21;;;;;;;20.70;9.73;;;9.10;99.90;;;;;;5056402;28;20444;-60
2021/11/10 00:23:48;;;;;;;21.75;9.60;;;9.10;99.90;;;;;;5045319;28;20052;-60
2021/11/10 00:26:14;;;;;;;25.05;9.77;;;9.10;99.90;;;;;;5040953;28;20396;-60
2021/11/10 00:28:40;;;;;;;21.70;9.48;;;9.10;99.90;;;;;;5050181;28;20122;-60
2021/11/10 00:31:06;;;;;;;22.33;9.48;;;9.10;99.90;;;;;;5051772;28;20044;-52
2021/11/10 00:33:33;;;;;;;16.65;9.80;;;9.10;99.90;;;;;;5042021;28;20057;-51
2021/11/10 00:35:59;;;;;;;21.35;8.90;;;9.10;99.90;;;;;;5051157;28;20045;-51
2021/11/10 00:38:25;;;;;;;18.88;8.80;;;9.10;99.90;;;;;;5044858;28;20037;-51
2021/11/10 00:40:51;;;;;;;28.02;10.18;;;9.10;99.90;;;;;;5050643;28;20057;-49
2021/11/10 00:43:19;;;;;;;19.05;9.35;;;9.10;99.90;;;;;;5033143;28;20076;-48
2021/11/10 00:45:45;;;;;;;22.08;9.63;;;9.20;99.90;;;;;;5050646;28;20037;-48
2021/11/10 00:48:11;;;;;;;19.40;9.40;;;9.20;99.90;;;;;;5049875;28;20041;-60
2021/11/10 00:50:38;;;;;;;20.58;9.25;;;9.20;99.90;;;;;;5064742;28;20055;-60
2021/11/10 00:53:05;;;;;;;14.82;8.20;;;9.20;99.90;;;;;;5045920;28;20044;-60
2021/11/10 00:55:35;;;;;;;19.75;8.63;;;9.20;99.90;;;;;;5047513;28;20051;-60
2021/11/10 00:58:02;;;;;;;17.90;8.32;;;9.20;99.90;;;;;;5042990;28;20500;-60
2021/11/10 01:00:29;;;;;;;19.88;8.77;;;9.20;99.90;;;;;;5048540;28;20549;-50
2021/11/10 01:02:56;;;;;;;18.75;8.35;;;9.20;99.90;;;;;;5033219;28;20041;-50
2021/11/10 01:05:22;;;;;;;16.52;8.75;;;9.20;99.90;;;;;;5050834;28;20048;-52
2021/11/10 01:07:48;;;;;;;24.85;9.27;;;9.20;99.90;;;;;;5050095;28;20044;-48
2021/11/10 01:10:15;;;;;;;21.00;8.70;;;9.20;99.90;;;;;;5047197;28;20040;-54
2021/11/10 01:12:41;;;;;;;19.45;9.13;;;9.20;99.90;;;;;;5049396;28;20132;-51
2021/11/10 01:15:09;;;;;;;18.40;9.32;;;9.20;99.90;;;;;;5048918;28;20080;-60
2021/11/10 01:17:37;;;;;;;16.42;8.70;;;9.20;99.90;;;;;;5049126;28;20055;-59
2021/11/10 01:20:05;;;;;;;18.45;9.27;;;9.20;99.90;;;;;;5043948;28;20526;-60
2021/11/10 01:22:32;;;;;;;19.67;8.38;;;9.20;99.90;;;;;;5031931;28;20060;-59
2021/11/10 01:24:58;;;;;;;17.25;8.68;;;9.20;99.90;;;;;;5045934;28;20083;-60
2021/11/10 01:27:26;;;;;;;25.10;10.73;;;9.10;99.90;;;;;;5031151;28;20040;-60
2021/11/10 01:29:52;;;;;;;20.10;9.13;;;9.20;99.90;;;;;;5045806;28;20075;-60
2021/11/10 01:32:18;;;;;;;22.23;9.80;;;9.10;99.90;;;;;;5064641;28;20119;-60
2021/11/10 01:34:45;;;;;;;21.13;8.90;;;9.10;99.90;;;;;;5031945;28;20056;-60
2021/11/10 01:37:15;;;;;;;21.90;9.32;;;9.10;99.90;;;;;;5049758;28;20044;-52
2021/11/10 01:39:41;;;;;;;19.50;9.15;;;9.10;99.90;;;;;;5047694;28;20052;-50
2021/11/10 01:42:10;;;;;;;22.23;10.20;;;9.10;99.90;;;;;;5029499;28;20536;-53
2021/11/10 01:44:42;;;;;;;21.42;10.02;;;9.10;99.90;;;;;;5065451;28;20037;-50
2021/11/10 01:47:11;;;;;;;16.10;9.35;;;9.10;99.90;;;;;;5051786;28;20049;-50
2021/11/10 01:49:41;;;;;;;21.48;9.73;;;9.00;99.90;;;;;;5047248;28;20037;-52
2021/11/10 01:52:09;;;;;;;18.52;9.50;;;9.10;99.90;;;;;;5044014;28;20125;-50
2021/11/10 01:54:37;;;;;;;22.48;9.35;;;9.10;99.90;;;;;;5026161;28;20441;-52
2021/11/10 01:57:06;;;;;;;25.05;10.57;;;9.10;99.90;;;;;;5064242;28;20122;-52
2021/11/10 01:59:38;;;;;;;18.25;10.23;;;9.00;99.90;;;;;;5060869;28;20198;-49
2021/11/10 02:02:08;;;;;;;23.40;10.43;;;9.10;99.90;;;;;;5048655;28;20515;-51
2021/11/10 02:04:37;;;;;;;17.38;11.10;;;9.00;99.90;;;;;;5047515;28;20045;-52
2021/11/10 02:07:05;;;;;;;20.33;10.15;;;9.10;99.90;;;;;;5054778;28;20083;-53
2021/11/10 02:09:31;;;;;;;21.73;10.88;;;9.10;99.90;;;;;;5044351;28;20041;-50
2021/11/10 02:12:00;;;;;;;20.40;10.10;;;9.00;99.90;;;;;;5048547;28;20412;-50
2021/11/10 02:14:29;;;;;;;20.35;10.48;;;9.10;99.90;;;;;;5046740;28;20107;-49
2021/11/10 02:16:56;;;;;;;23.55;11.00;;;9.10;99.90;;;;;;5028100;28;20040;-48
2021/11/10 02:19:25;;;;;;;17.35;10.07;;;9.10;99.90;;;;;;5040337;28;20506;-48
2021/11/10 02:22:08;;;;;;;22.38;10.13;;;9.10;99.90;;;;;;5043837;28;20041;-48
2021/11/10 02:24:37;;;;;;;22.67;10.02;;;9.10;99.90;;;;;;5047353;28;20480;-49
2021/11/10 02:27:03;;;;;;;19.08;10.23;;;9.10;99.90;;;;;;5046830;28;20044;-49
2021/11/10 02:29:31;;;;;;;19.15;9.77;;;9.10;99.90;;;;;;5047737;28;20037;-50
2021/11/10 02:31:58;;;;;;;21.25;10.18;;;9.10;99.90;;;;;;5049460;28;20040;-49
2021/11/10 02:34:24;;;;;;;19.45;10.32;;;9.10;99.90;;;;;;5047188;28;20045;-48
2021/11/10 02:36:51;;;;;;;19.92;10.13;;;9.10;99.90;;;;;;5031760;28;20519;-52
2021/11/10 02:39:22;;;;;;;18.77;10.13;;;9.10;99.90;;;;;;5048782;28;20480;-51
2021/11/10 02:41:49;;;;;;;21.08;10.98;;;9.10;99.90;;;;;;5047030;28;20048;-51
2021/11/10 02:44:18;;;;;;;22.20;11.23;;;9.10;99.90;;;;;;5046685;28;20045;-48
2021/11/10 02:46:46;;;;;;;18.80;10.50;;;9.10;99.90;;;;;;5017349;28;20048;-52
2021/11/10 02:49:13;;;;;;;20.40;11.05;;;9.10;99.90;;;;;;5041375;28;20083;-51
2021/11/10 02:51:58;;;;;;;22.48;11.65;;;9.10;99.90;;;;;;5047070;28;20047;-60
2021/11/10 02:54:26;;;;;;;17.90;10.80;;;9.10;99.90;;;;;;5041680;28;20050;-61
2021/11/10 02:57:00;;;;;;;25.42;9.98;;;9.10;99.90;;;;;;5026286;28;20526;-60
2021/11/10 02:59:27;;;;;;;19.33;10.95;;;9.10;99.90;;;;;;5041204;28;20143;-59
2021/11/10 03:01:55;;;;;;;21.73;9.90;;;9.10;99.90;;;;;;5044671;28;20040;-60
2021/11/10 03:04:24;;;;;;;19.10;9.57;;;9.10;99.90;;;;;;5043260;28;20078;-60
2021/11/10 03:06:53;;;;;;;19.98;10.40;;;9.10;99.90;;;;;;5044063;28;20049;-60
2021/11/10 03:09:26;;;;;;;17.23;10.07;;;9.10;99.90;;;;;;5024718;28;20056;-60
2021/11/10 03:11:58;;;;;;;17.92;10.02;;;9.10;99.90;;;;;;5029633;28;20040;-57
2021/11/10 03:14:26;;;;;;;22.48;10.50;;;9.10;99.90;;;;;;5044854;28;20036;-58
2021/11/10 03:16:54;;;;;;;21.25;10.35;;;9.10;99.90;;;;;;5044020;28;20091;-58
2021/11/10 03:19:22;;;;;;;18.67;10.63;;;9.10;99.90;;;;;;5044920;28;20041;-57
2021/11/10 03:21:48;;;;;;;20.88;10.05;;;9.10;99.90;;;;;;5044656;28;20048;-58
2021/11/10 03:24:15;;;;;;;18.58;10.07;;;9.10;99.90;;;;;;5047044;28;20091;-58
2021/11/10 03:26:42;;;;;;;17.80;10.07;;;9.10;99.90;;;;;;5059907;28;20041;-58
2021/11/10 03:29:09;;;;;;;23.15;10.13;;;9.10;99.90;;;;;;5008289;28;20083;-59
2021/11/10 03:31:38;;;;;;;20.85;10.00;;;9.10;99.90;;;;;;5029962;28;20110;-59
2021/11/10 03:34:07;;;;;;;18.33;10.15;;;9.10;99.90;;;;;;5041826;28;20041;-58
2021/11/10 03:36:34;;;;;;;16.52;9.75;;;9.10;99.90;;;;;;5039146;28;20127;-59
2021/11/10 03:39:00;;;;;;;18.90;9.65;;;9.10;99.90;;;;;;5042057;28;20500;-59
2021/11/10 03:41:27;;;;;;;24.95;10.55;;;9.10;99.90;;;;;;5063130;28;20499;-51
2021/11/10 03:43:54;;;;;;;17.92;10.30;;;9.10;99.90;;;;;;5027892;28;20062;-48
2021/11/10 03:46:23;;;;;;;26.33;11.65;;;9.10;99.90;;;;;;5045498;28;20045;-51
2021/11/10 03:48:51;;;;;;;22.30;10.90;;;9.10;99.90;;;;;;5043199;28;20103;-48
2021/11/10 03:51:18;;;;;;;18.67;10.25;;;9.10;99.90;;;;;;5011520;28;20049;-49
2021/11/10 03:53:46;;;;;;;20.52;9.80;;;9.00;99.90;;;;;;5045946;28;20128;-49
2021/11/10 03:56:13;;;;;;;17.35;10.80;;;9.00;99.90;;;;;;5044627;28;20041;-51
2021/11/10 03:58:39;;;;;;;15.15;10.70;;;9.00;99.90;;;;;;5062394;28;20496;-52
2021/11/10 04:01:06;;;;;;;19.65;10.60;;;9.00;99.90;;;;;;5044045;28;20434;-50
2021/11/10 04:03:33;;;;;;;18.88;11.05;;;9.00;99.90;;;;;;5041586;28;20083;-49
2021/11/10 04:06:02;;;;;;;22.50;11.05;;;9.00;99.90;;;;;;5046175;28;20295;-48
2021/11/10 04:08:30;;;;;;;17.50;10.90;;;8.90;99.90;;;;;;5045918;28;20037;-49
2021/11/10 04:11:00;;;;;;;20.35;11.88;;;8.90;99.90;;;;;;5062944;28;20695;-49
2021/11/10 04:13:28;;;;;;;21.88;12.63;;;8.90;99.90;;;;;;5040724;28;20053;-47
2021/11/10 04:15:54;;;;;;;24.13;12.73;;;8.80;99.90;;;;;;5028174;28;20056;-49
2021/11/10 04:18:20;;;;;;;20.55;13.23;;;8.80;99.90;;;;;;5046778;28;20561;-48
2021/11/10 04:20:50;;;;;;;19.40;13.02;;;8.80;99.90;;;;;;5044000;28;20049;-49
2021/11/10 04:23:16;;;;;;;18.42;13.02;;;8.70;99.90;;;;;;5046001;28;20041;-52
2021/11/10 04:25:42;;;;;;;18.70;12.68;;;8.70;99.90;;;;;;5045575;28;20484;-50
2021/11/10 04:28:11;;;;;;;20.65;12.80;;;8.70;99.90;;;;;;5013479;28;20056;-47
2021/11/10 04:30:38;;;;;;;22.52;13.73;;;8.60;99.90;;;;;;5042251;28;20040;-50
2021/11/10 04:33:04;;;;;;;19.33;14.27;;;8.60;99.90;;;;;;5050154;28;20044;-51
2021/11/10 04:35:30;;;;;;;18.05;14.05;;;8.60;99.90;;;;;;5053226;28;20048;-49
2021/11/10 04:37:57;;;;;;;20.48;13.75;;;8.50;99.90;;;;;;5027765;28;20055;-49
2021/11/10 04:40:25;;;;;;;23.38;14.13;;;8.50;99.90;;;;;;5045946;28;20507;-48
2021/11/10 04:42:52;;;;;;;21.38;13.63;;;8.50;99.90;;;;;;5028751;28;20053;-50
2021/11/10 04:45:32;;;;;;;19.83;13.05;;;8.50;99.90;;;;;;5042244;28;20453;-49
2021/11/10 04:47:59;;;;;;;23.05;14.05;;;8.40;99.90;;;;;;5041611;28;20076;-48
2021/11/10 04:50:26;;;;;;;20.92;14.57;;;8.40;99.90;;;;;;5045538;28;20037;-52
2021/11/10 04:52:52;;;;;;;19.65;14.13;;;8.40;99.90;;;;;;5043653;28;20080;-49
2021/11/10 04:55:18;;;;;;;22.33;14.27;;;8.40;99.90;;;;;;5045103;28;20124;-48
2021/11/10 04:57:46;;;;;;;20.67;12.90;;;8.40;99.90;;;;;;5042877;28;20488;-48
2021/11/10 05:00:13;;;;;;;19.75;12.80;;;8.40;99.90;;;;;;5042297;28;20099;-51
2021/11/10 05:02:44;;;;;;;18.00;13.90;;;8.40;99.90;;;;;;5028577;28;20045;-49
2021/11/10 05:05:15;;;;;;;18.40;12.85;;;8.40;99.90;;;;;;5044270;28;20041;-48
2021/11/10 05:07:42;;;;;;;17.92;13.43;;;8.40;99.90;;;;;;5060284;28;20504;-60
2021/11/10 05:10:10;;;;;;;20.52;13.50;;;8.40;99.90;;;;;;5047555;28;20049;-59
2021/11/10 05:12:36;;;;;;;20.13;13.73;;;8.30;99.90;;;;;;5052442;28;20053;-59
2021/11/10 05:15:04;;;;;;;20.35;13.90;;;8.30;99.90;;;;;;5050033;28;20041;-60
2021/11/10 05:17:30;;;;;;;19.27;13.73;;;8.30;99.90;;;;;;5050317;28;20045;-48
2021/11/10 05:19:56;;;;;;;22.30;13.55;;;8.30;99.90;;;;;;5032570;28;20048;-49
2021/11/10 05:22:22;;;;;;;18.77;13.73;;;8.30;99.90;;;;;;5048754;28;20047;-48
2021/11/10 05:24:48;;;;;;;18.67;13.00;;;8.30;99.90;;;;;;5048412;28;20056;-59
2021/11/10 05:27:14;;;;;;;21.83;13.52;;;8.30;99.90;;;;;;5050805;28;20045;-60
2021/11/10 05:29:40;;;;;;;19.45;13.90;;;8.30;99.90;;;;;;5040122;28;20037;-53
2021/11/10 05:32:07;;;;;;;17.67;12.93;;;8.20;99.90;;;;;;5039746;28;20048;-50
2021/11/10 05:34:33;;;;;;;16.45;13.20;;;8.20;99.90;;;;;;5049994;28;20045;-48
2021/11/10 05:36:59;;;;;;;17.98;12.77;;;8.20;99.90;;;;;;5046487;28;20044;-51
2021/11/10 05:39:25;;;;;;;19.30;12.32;;;8.20;99.90;;;;;;5046058;28;20049;-60
2021/11/10 05:41:51;;;;;;;20.83;14.25;;;8.10;99.90;;;;;;5049789;28;20060;-48
2021/11/10 05:44:17;;;;;;;17.75;11.75;;;8.10;99.90;;;;;;5050436;28;20049;-48
2021/11/10 05:46:43;;;;;;;15.60;12.25;;;8.10;99.90;;;;;;5050882;28;20072;-49
2021/11/10 05:49:09;;;;;;;17.42;12.32;;;8.10;99.90;;;;;;5050047;28;20048;-51
2021/11/10 05:51:36;;;;;;;20.00;12.98;;;8.10;99.90;;;;;;5046203;28;20522;-53
2021/11/10 05:54:03;;;;;;;23.60;13.10;;;8.10;99.90;;;;;;5049392;28;20447;-53
2021/11/10 05:56:33;;;;;;;21.73;13.15;;;8.10;99.90;;;;;;5050193;28;20037;-51
2021/11/10 05:59:00;;;;;;;18.35;11.93;;;8.10;99.90;;;;;;5050859;28;20120;-50
2021/11/10 06:01:27;;;;;;;20.60;13.38;;;8.00;99.90;;;;;;5048366;28;20040;-50
2021/11/10 06:03:54;;;;;;;18.20;11.88;;;8.00;99.90;;;;;;5048906;28;20115;-51
2021/11/10 06:06:22;;;;;;;21.40;13.80;;;8.00;99.90;;;;;;5044599;28;20055;-49
2021/11/10 06:08:48;;;;;;;19.75;13.00;;;8.00;99.90;;;;;;5049088;28;20152;-51
2021/11/10 06:11:14;;;;;;;20.60;13.60;;;8.00;99.90;;;;;;5049237;28;20530;-52
2021/11/10 06:13:40;;;;;;;18.42;12.98;;;8.00;99.90;;;;;;5048486;28;20124;-52
2021/11/10 06:16:08;;;;;;;22.88;13.50;;;8.00;99.90;;;;;;5034116;28;20059;-53
2021/11/10 06:18:34;;;;;;;20.08;12.68;;;8.00;99.90;;;;;;5032840;28;20415;-48
2021/11/10 06:21:00;;;;;;;21.88;13.70;;;7.90;99.90;;;;;;5033081;28;20084;-53
2021/11/10 06:23:27;;;;;;;25.23;13.75;;;8.00;99.90;;;;;;5032430;28;20127;-51
2021/11/10 06:25:54;;;;;;;24.08;12.85;;;8.00;99.90;;;;;;5032969;28;20047;-49
2021/11/10 06:28:20;;;;;;;21.98;12.73;;;8.00;99.90;;;;;;5043928;28;20053;-52
2021/11/10 06:30:46;;;;;;;18.80;13.20;;;8.00;99.90;;;;;;5052485;28;20041;-49
2021/11/10 06:33:12;;;;;;;22.17;14.23;;;8.00;99.90;;;;;;5030912;28;20120;-52
2021/11/10 06:35:38;;;;;;;20.95;13.82;;;8.00;99.90;;;;;;5035091;28;20067;-52
2021/11/10 06:38:04;;;;;;;24.30;13.73;;;7.90;99.90;;;;;;5035560;28;20060;-51
2021/11/10 06:40:31;;;;;;;23.65;13.40;;;7.90;99.90;;;;;;5014182;28;20447;-49
2021/11/10 06:42:57;;;;;;;21.20;13.45;;;8.00;99.90;;;;;;5033690;28;20043;-49
2021/11/10 06:45:23;;;;;;;17.05;14.02;;;7.90;99.90;;;;;;5046023;28;20455;-49
2021/11/10 06:47:50;;;;;;;22.10;15.02;;;7.90;99.90;;;;;;5034579;28;20041;-52
2021/11/10 06:50:16;;;;;;;25.15;14.63;;;8.00;99.90;;;;;;5031683;28;20065;-51
2021/11/10 06:52:43;;;;;;;20.85;13.65;;;8.00;99.90;;;;;;5049735;28;20049;-50
2021/11/10 06:55:10;;;;;;;21.77;14.73;;;8.00;99.90;;;;;;5042199;28;20404;-51
2021/11/10 06:57:37;;;;;;;19.95;14.20;;;8.00;99.90;;;;;;5049428;28;20053;-52
2021/11/10 07:00:08;;;;;;;20.58;15.18;;;8.10;99.90;;;;;;5049778;28;20037;-52
2021/11/10 07:02:34;;;;;;;26.70;16.00;;;8.10;99.90;;;;;;5049570;28;20076;-48
2021/11/10 07:05:00;;;;;;;23.40;15.48;;;8.10;99.90;;;;;;5049259;28;20044;-48
2021/11/10 07:07:26;;;;;;;23.35;15.52;;;8.10;99.90;;;;;;5047755;28;20500;-50
2021/11/10 07:09:52;;;;;;;28.15;15.98;;;8.10;99.90;;;;;;5049294;28;20044;-52
2021/11/10 07:12:18;;;;;;;21.90;15.70;;;8.20;99.90;;;;;;5049599;28;20407;-48
2021/11/10 07:14:45;;;;;;;21.05;14.68;;;8.20;99.90;;;;;;5049506;28;20407;-52
2021/11/10 07:17:11;;;;;;;23.88;15.80;;;8.20;99.90;;;;;;5047277;28;20060;-52
2021/11/10 07:19:37;;;;;;;22.27;15.95;;;8.20;99.90;;;;;;5051395;28;20040;-50
2021/11/10 07:22:03;;;;;;;23.02;16.15;;;8.20;99.90;;;;;;5031900;28;20044;-48
2021/11/10 07:24:30;;;;;;;22.42;15.30;;;8.30;99.90;;;;;;5048824;28;20048;-48
2021/11/10 07:26:57;;;;;;;27.75;16.40;;;8.30;99.90;;;;;;5032230;28;20115;-50
2021/11/10 07:29:23;;;;;;;20.90;17.30;;;8.30;99.90;;;;;;5047835;28;20376;-52
2021/11/10 07:31:49;;;;;;;27.73;15.93;;;8.30;99.90;;;;;;5046010;28;20285;-51
2021/11/10 07:34:15;;;;;;;24.20;16.88;;;8.30;99.90;;;;;;5040804;28;20047;-49
2021/11/10 07:36:41;;;;;;;24.23;16.45;;;8.40;99.90;;;;;;5044921;28;20045;-52
2021/11/10 07:39:08;;;;;;;23.88;17.13;;;8.40;99.90;;;;;;5028932;28;20033;-50
2021/11/10 07:41:35;;;;;;;22.38;16.33;;;8.40;99.90;;;;;;5047015;28;20049;-53
2021/11/10 07:44:02;;;;;;;19.45;15.52;;;8.40;99.90;;;;;;5048848;28;20057;-50
2021/11/10 07:46:32;;;;;;;23.20;17.67;;;8.50;99.90;;;;;;5048853;28;20950;-49
2021/11/10 07:48:58;;;;;;;23.95;16.70;;;8.50;99.90;;;;;;5047695;28;20468;-50
2021/11/10 07:51:24;;;;;;;19.33;16.00;;;8.50;99.90;;;;;;5047121;28;20076;-49
2021/11/10 07:53:51;;;;;;;22.17;15.48;;;8.60;99.90;;;;;;5048959;28;20048;-52
2021/11/10 07:56:17;;;;;;;23.35;15.43;;;8.60;99.90;;;;;;5046444;28;20198;-52
2021/11/10 07:58:43;;;;;;;22.17;16.67;;;8.60;99.90;;;;;;5048558;28;20080;-52
2021/11/10 08:01:10;;;;;;;26.65;15.93;;;8.60;99.90;;;;;;5046922;28;20045;-48
2021/11/10 08:03:37;;;;;;;27.75;17.52;;;8.60;99.90;;;;;;5030630;28;20041;-50
2021/11/10 08:06:04;;;;;;;26.35;16.08;;;8.60;99.90;;;;;;5048464;28;20084;-51
2021/11/10 08:08:31;;;;;;;22.30;15.73;;;8.60;99.90;;;;;;5048648;28;20136;-53
2021/11/10 08:10:59;;;;;;;22.50;15.85;;;8.70;99.90;;;;;;5048465;28;20067;-50
2021/11/10 08:13:27;;;;;;;24.65;15.02;;;8.70;99.90;;;;;;5048204;28;20045;-52
2021/11/10 08:15:56;;;;;;;18.17;13.35;;;8.70;99.90;;;;;;5047174;28;20045;-51
2021/11/10 08:18:23;;;;;;;21.77;13.40;;;8.70;99.90;;;;;;5046587;28;20493;-51
2021/11/10 08:20:49;;;;;;;22.27;14.50;;;8.80;99.90;;;;;;5046506;28;20077;-50
2021/11/10 08:23:20;;;;;;;20.60;14.55;;;8.80;99.90;;;;;;5046886;28;20041;-50
2021/11/10 08:25:50;;;;;;;23.60;15.80;;;8.90;99.90;;;;;;5030394;28;20118;-48
2021/11/10 08:28:17;;;;;;;25.80;15.30;;;8.90;99.90;;;;;;5047444;28;20044;-49
2021/11/10 08:30:43;;;;;;;21.02;15.00;;;9.00;99.90;;;;;;5046964;28;20033;-58
2021/11/10 08:33:09;;;;;;;24.52;15.23;;;9.00;99.90;;;;;;5030507;28;20508;-52
2021/11/10 08:35:36;;;;;;;23.52;14.73;;;9.10;99.90;;;;;;5046500;28;20041;-49
2021/11/10 08:38:03;;;;;;;20.90;15.15;;;9.10;99.90;;;;;;5048680;28;20078;-50
2021/11/10 08:40:29;;;;;;;23.42;14.70;;;9.10;99.90;;;;;;5048405;28;20055;-50
2021/11/10 08:42:55;;;;;;;24.95;14.82;;;9.20;99.90;;;;;;5049945;28;20080;-49
2021/11/10 08:45:25;;;;;;;27.75;15.55;;;9.20;99.90;;;;;;5043927;28;20041;-52
2021/11/10 08:47:53;;;;;;;21.02;14.48;;;9.30;99.90;;;;;;5048873;28;20055;-51
2021/11/10 08:50:22;;;;;;;29.75;15.68;;;9.30;99.90;;;;;;5031763;28;20392;-51
2021/11/10 08:52:49;;;;;;;18.30;14.07;;;9.30;99.90;;;;;;5048553;28;20044;-51
2021/11/10 08:55:17;;;;;;;20.40;13.80;;;9.30;99.90;;;;;;5052214;28;20508;-51
2021/11/10 08:57:45;;;;;;;23.98;13.82;;;9.30;99.90;;;;;;5050429;28;20040;-52
2021/11/10 09:00:15;;;;;;;22.38;13.75;;;9.30;99.90;;;;;;5051287;28;20053;-50
2021/11/10 09:02:42;;;;;;;23.67;14.43;;;9.30;99.90;;;;;;5050057;28;20143;-58
2021/11/10 09:05:10;;;;;;;23.13;14.52;;;9.30;99.90;;;;;;5051679;28;20389;-59
2021/11/10 09:07:36;;;;;;;23.77;13.30;;;9.30;99.90;;;;;;5050054;28;20093;-59
2021/11/10 09:10:05;;;;;;;22.20;13.38;;;9.30;99.90;;;;;;5051683;28;20041;-49
2021/11/10 09:12:31;;;;;;;20.70;14.20;;;9.30;99.90;;;;;;5051676;28;20064;-49
2021/11/10 09:14:58;;;;;;;26.80;14.40;;;9.30;99.90;;;;;;5051482;28;20044;-58
2021/11/10 09:17:26;;;;;;;21.58;13.90;;;9.30;99.90;;;;;;5050142;28;20538;-59
2021/11/10 09:19:53;;;;;;;23.95;14.88;;;9.30;99.90;;;;;;5051348;28;20049;-58
2021/11/10 09:22:20;;;;;;;24.55;14.00;;;9.30;99.90;;;;;;5049981;28;20056;-59
2021/11/10 09:24:46;;;;;;;24.98;14.48;;;9.50;99.90;;;;;;5051150;28;20045;-59
2021/11/10 09:27:12;;;;;;;23.02;14.07;;;9.50;99.90;;;;;;5049975;28;20055;-60
2021/11/10 09:29:38;;;;;;;23.88;13.77;;;9.50;99.90;;;;;;5049833;28;20131;-60
2021/11/10 09:32:04;;;;;;;23.58;14.48;;;9.50;99.90;;;;;;5049645;28;20488;-59
2021/11/10 09:34:32;;;;;;;20.75;13.93;;;9.50;99.90;;;;;;5049638;28;20126;-52
2021/11/10 09:36:58;;;;;;;24.38;13.48;;;9.50;99.90;;;;;;5033031;28;20049;-47
2021/11/10 09:39:25;;;;;;;23.85;14.88;;;9.60;99.90;;;;;;5051348;28;20546;-53
2021/11/10 09:41:53;;;;;;;26.30;13.95;;;9.60;99.90;;;;;;5050472;28;20598;-50
2021/11/10 09:44:22;;;;;;;23.98;14.40;;;9.60;99.90;;;;;;5050823;28;20041;-50
2021/11/10 09:46:48;;;;;;;26.02;14.52;;;9.70;99.90;;;;;;5049376;28;20492;-53
2021/11/10 09:49:14;;;;;;;27.90;15.90;;;9.70;99.90;;;;;;5051117;28;20045;-49
2021/11/10 09:51:43;;;;;;;26.30;14.13;;;9.80;99.90;;;;;;5050264;28;20049;-47
2021/11/10 09:54:11;;;;;;;22.48;14.63;;;9.80;99.90;;;;;;5013248;28;20041;-50
2021/11/10 09:56:37;;;;;;;19.95;13.82;;;9.80;99.90;;;;;;5030292;28;20095;-49
2021/11/10 09:59:05;;;;;;;25.25;15.68;;;9.70;99.90;;;;;;5031974;28;20064;-50
2021/11/10 10:01:36;;;;;;;25.77;14.25;;;9.70;99.90;;;;;;5030443;28;20080;-48
2021/11/10 10:04:04;;;;;;;24.52;13.68;;;9.80;99.90;;;;;;5031883;28;20057;-53
2021/11/10 10:06:30;;;;;;;22.75;13.80;;;9.70;99.90;;;;;;5031634;28;20038;-51
2021/11/10 10:08:57;;;;;;;26.58;14.60;;;9.70;99.90;;;;;;5030042;28;20452;-50
2021/11/10 10:11:24;;;;;;;24.63;14.85;;;9.70;99.90;;;;;;5030258;28;20052;-60
2021/11/10 10:13:50;;;;;;;23.00;14.45;;;9.70;99.90;;;;;;5046721;28;20317;-60
2021/11/10 10:16:23;;;;;;;22.25;14.10;;;9.70;99.90;;;;;;5049641;28;20068;-60
2021/11/10 10:18:50;;;;;;;27.98;13.85;;;9.70;99.90;;;;;;5049664;28;20053;-61
2021/11/10 10:21:18;;;;;;;32.30;14.57;;;9.70;99.90;;;;;;5051535;28;20454;-60
2021/11/10 10:23:48;;;;;;;26.77;13.77;;;9.70;99.90;;;;;;5051540;28;20048;-60
2021/11/10 10:26:16;;;;;;;20.67;14.07;;;9.70;99.90;;;;;;5051552;28;20037;-60
2021/11/10 10:28:45;;;;;;;22.30;13.88;;;9.70;99.90;;;;;;5066715;28;20045;-59
2021/11/10 10:31:18;;;;;;;23.20;14.38;;;9.60;99.90;;;;;;5048130;28;20053;-59
2021/11/10 10:33:47;;;;;;;29.15;14.23;;;9.60;99.90;;;;;;5050070;28;20515;-50
2021/11/10 10:36:16;;;;;;;26.65;15.10;;;9.60;99.90;;;;;;5050327;28;20399;-48
2021/11/10 10:38:58;;;;;;;28.15;13.57;;;9.60;99.90;;;;;;5055837;28;20431;-48
2021/11/10 10:41:27;;;;;;;;;;;9.60;99.90;;;;;;5055425;28;20170;-52
2021/11/10 10:43:54;;;;;;;18.17;13.18;;;9.60;99.90;;;;;;5053867;28;19974;-51
2021/11/10 10:46:27;;;;;;;25.05;14.13;;;9.60;99.90;;;;;;5049724;28;20045;-48
2021/11/10 10:49:24;;;;;;;25.92;14.38;;;9.60;99.90;;;;;;5049700;28;20317;-50
2021/11/10 10:52:10;;;;;;;25.23;12.05;;;9.60;99.90;;;;;;5049059;28;20120;-51
2021/11/10 10:54:38;;;;;;;26.70;14.02;;;9.70;99.90;;;;;;5045109;28;20041;-52
2021/11/10 10:57:06;;;;;;;21.27;13.32;;;9.70;99.90;;;;;;5040353;28;20044;-53
2021/11/10 10:59:32;;;;;;;24.10;13.85;;;9.80;99.90;;;;;;5049804;28;20095;-52
2021/11/10 11:02:03;;;;;;;23.77;13.43;;;9.90;99.90;;;;;;5033716;28;20148;-50
2021/11/10 11:04:31;;;;;;;19.90;12.38;;;9.90;99.90;;;;;;5030402;28;20128;-52
2021/11/10 11:07:05;;;;;;;25.77;13.00;;;9.90;99.90;;;;;;5036499;28;20573;-49
2021/11/10 11:09:42;;;;;;;24.25;13.32;;;9.90;99.90;;;;;;5050802;28;20558;-50
2021/11/10 11:12:30;;;;;;;27.92;13.30;;;9.80;99.90;;;;;;5050118;28;20079;-59
2021/11/10 11:15:10;;;;;;;27.45;13.50;;;9.90;99.90;;;;;;5050209;28;20106;-59
2021/11/10 11:17:38;;;;;;;23.80;13.25;;;10.00;99.90;;;;;;5045919;28;20127;-59
2021/11/10 11:20:06;;;;;;;22.20;12.20;;;10.00;99.90;;;;;;5048151;28;20040;-59
2021/11/10 11:22:44;;;;;;;23.77;13.60;;;10.10;99.90;;;;;;5048817;28;20140;-59
2021/11/10 11:25:21;;;;;;;25.42;12.68;;;10.10;99.90;;;;;;5045509;28;20041;-60
2021/11/10 11:27:54;;;;;;;27.48;13.20;;;10.10;99.90;;;;;;5048754;28;20048;-59
2021/11/10 11:30:22;;;;;;;21.20;11.75;;;10.00;99.90;;;;;;5030998;28;20064;-59
2021/11/10 11:32:50;;;;;;;18.50;11.85;;;10.00;99.90;;;;;;5044343;28;20055;-50
2021/11/10 11:35:30;;;;;;;19.70;11.73;;;10.00;99.90;;;;;;5048592;28;20428;-51
2021/11/10 11:38:03;;;;;;;20.55;12.40;;;10.00;99.90;;;;;;5046879;28;21295;-51
2021/11/10 11:40:32;;;;;;;21.63;12.25;;;10.10;99.90;;;;;;5047448;28;20538;-49
2021/11/10 11:42:59;;;;;;;23.30;13.13;;;10.10;99.90;;;;;;5048238;28;20041;-52
2021/11/10 11:45:27;;;;;;;25.42;13.20;;;10.10;99.90;;;;;;5047017;28;20103;-59
2021/11/10 11:47:55;;;;;;;19.48;12.00;;;10.20;99.90;;;;;;5047086;28;20095;-60
2021/11/10 11:50:23;;;;;;;21.50;12.35;;;10.20;99.90;;;;;;5044798;28;20399;-59
2021/11/10 11:52:50;;;;;;;24.65;12.63;;;10.10;99.90;;;;;;5048822;28;20052;-60
2021/11/10 11:55:24;;;;;;;26.60;12.57;;;10.20;99.90;;;;;;5048145;28;20041;-51
2021/11/10 11:58:02;;;;;;;19.88;12.55;;;10.20;99.90;;;;;;5046821;28;20040;-59
2021/11/10 12:00:41;;;;;;;24.88;11.77;;;10.10;99.90;;;;;;5042498;28;20491;-60
2021/11/10 12:03:26;;;;;;;22.15;11.93;;;10.20;99.90;;;;;;5045521;28;20041;-58
2021/11/10 12:06:24;;;;;;;21.65;12.38;;;10.10;99.90;;;;;;5045896;28;20116;-59
2021/11/10 12:08:57;;;;;;;25.02;12.02;;;10.10;99.90;;;;;;5048006;28;20487;-50
2021/11/10 12:11:36;;;;;;;22.00;10.98;;;10.10;99.90;;;;;;5044281;28;20053;-58
2021/11/10 12:14:15;;;;;;;24.95;13.10;;;10.10;99.90;;;;;;5033051;28;20051;-50
2021/11/10 12:17:12;;;;;;;26.67;13.23;;;10.10;99.90;;;;;;5061002;28;20119;-50
2021/11/10 12:19:58;;;;;;;25.05;12.85;;;10.20;99.90;;;;;;5048812;28;20037;-51
2021/11/10 12:22:25;;;;;;;24.05;12.40;;;10.20;99.90;;;;;;5046461;28;20365;-52
2021/11/10 12:24:58;;;;;;;23.27;12.15;;;10.20;99.90;;;;;;5050732;28;20130;-51
2021/11/10 12:27:31;;;;;;;23.75;12.48;;;10.20;99.90;;;;;;5018328;28;20132;-59
2021/11/10 12:30:17;;;;;;;22.17;12.13;;;10.20;99.90;;;;;;5052027;28;20407;-58
2021/11/10 12:32:59;;;;;;;23.42;12.48;;;10.30;99.90;;;;;;5051104;28;20549;-59
2021/11/10 12:35:49;;;;;;;23.95;12.38;;;10.30;99.90;;;;;;5051363;28;20136;-50
2021/11/10 12:38:22;;;;;;;23.63;12.50;;;10.30;99.90;;;;;;5048253;28;20040;-51
2021/11/10 12:40:56;;;;;;;21.98;12.23;;;10.30;99.90;;;;;;5046916;28;20053;-47
2021/11/10 12:43:25;;;;;;;24.05;11.95;;;10.30;99.90;;;;;;5051979;28;20199;-59
2021/11/10 12:45:59;;;;;;;24.23;13.20;;;10.30;99.90;;;;;;5052229;28;20123;-59